In Rescue
 
Open Full Screen Window  High Contrast Mode
Wind Gusting 00 knots
04
May 27, 2024 12:57 PM CDT
Weather Information
Wind Direction
  300 °
Wind Speed
  04 kt (5 mph)
Wind Gust
  00 kt (0 mph)
Altimeter
29.79 in
Visibility
10 SM
Temperature
20° C
68° F
Dewpoint
06° C
43° F
Humidity
40%
Sky Condition
Broken @ 9,000 ft
Scattered @ 7,000 ft
VFR

METAR KEVM 271757Z AUTO 30004KT 10SM SCT070 BKN090 20/06 A2979 RMK AO2 T01970056 10205 20090

FAA Disclaimer: The data displayed is for advisory purposes only and is not to be used for flight planning or operations.